Time;durP1;ratioP1;P1;durP2;ratioP2;P2;SDS_P1;SDS_P2;PMS_P1;PMS_P2;Temp;Humidity;BMP_temperature;BMP_pressure;BME280_temperature;BME280_humidity;BME280_pressure;Samples;Min_cycle;Max_cycle;Signal;HPM_P1;HPM_P2
2021/01/27 00:00:36;;;;;;;2.47;1.77;;;;;;;-0.53;93.33;98559.59;5026201;28;20029;-63
2021/01/27 00:03:03;;;;;;;3.23;2.10;;;;;;;-0.37;93.32;98554.91;5026037;28;20453;-63
2021/01/27 00:05:36;;;;;;;2.60;1.93;;;;;;;-0.25;92.26;98555.19;5023361;28;20040;-63
2021/01/27 00:08:03;;;;;;;2.60;1.87;;;;;;;-0.26;91.80;98554.34;5029237;28;20025;-63
2021/01/27 00:10:29;;;;;;;1.87;1.60;;;;;;;-0.25;91.10;98540.91;5036233;28;20467;-62
2021/01/27 00:12:55;;;;;;;2.73;1.80;;;;;;;-0.16;90.54;98533.56;5035700;28;20041;-62
2021/01/27 00:15:27;;;;;;;3.17;2.30;;;;;;;-0.16;89.36;98546.16;5036178;28;20064;-63
2021/01/27 00:17:52;;;;;;;4.70;2.77;;;;;;;-0.11;89.26;98542.09;5034568;28;20029;-63
2021/01/27 00:20:21;;;;;;;2.90;2.27;;;;;;;-0.07;88.39;98545.50;5034929;28;20041;-63
2021/01/27 00:22:47;;;;;;;3.03;2.23;;;;;;;-0.15;88.58;98537.81;5037265;28;20041;-63
2021/01/27 00:25:13;;;;;;;4.27;2.57;;;;;;;-0.13;87.59;98541.19;5035833;28;20056;-63
2021/01/27 00:27:38;;;;;;;4.63;2.63;;;;;;;-0.13;86.71;98540.38;5016864;28;20025;-63
2021/01/27 00:30:09;;;;;;;5.83;2.97;;;;;;;0.02;86.55;98543.19;5015985;28;20037;-62
2021/01/27 00:32:34;;;;;;;5.23;3.00;;;;;;;-0.08;86.59;98539.63;5016522;28;20045;-63
2021/01/27 00:34:59;;;;;;;5.90;3.40;;;;;;;-0.03;86.03;98544.75;5015422;28;20422;-62
2021/01/27 00:37:25;;;;;;;3.63;3.13;;;;;;;0.03;84.81;98539.00;5026945;28;20045;-63
2021/01/27 00:39:50;;;;;;;7.83;3.50;;;;;;;0.00;85.09;98547.38;5036730;28;20041;-63
2021/01/27 00:42:15;;;;;;;4.80;2.93;;;;;;;-0.04;85.37;98543.91;5034882;28;20025;-63
2021/01/27 00:44:41;;;;;;;3.50;2.87;;;;;;;-0.13;85.85;98551.25;5036186;28;20320;-63
2021/01/27 00:47:06;;;;;;;4.30;2.83;;;;;;;-0.17;86.25;98544.47;5034764;28;20163;-63
2021/01/27 00:49:32;;;;;;;5.37;3.87;;;;;;;-0.26;86.58;98551.00;5036411;28;20025;-63
2021/01/27 00:51:57;;;;;;;8.80;4.77;;;;;;;-0.25;86.45;98553.53;5035383;28;20065;-63
2021/01/27 00:54:22;;;;;;;9.93;5.10;;;;;;;-0.31;87.24;98548.38;5036182;28;20033;-63
2021/01/27 00:56:48;;;;;;;7.53;4.50;;;;;;;-0.32;87.16;98555.88;5036233;28;20056;-63
2021/01/27 00:59:13;;;;;;;3.67;3.33;;;;;;;-0.01;81.92;98541.47;5034980;28;20073;-63
2021/01/27 01:01:38;;;;;;;3.10;2.80;;;;;;;0.28;78.96;98538.69;5035734;28;20090;-63
2021/01/27 01:04:05;;;;;;;5.00;3.43;;;;;;;0.37;78.44;98543.91;5034280;28;20108;-63
2021/01/27 01:06:31;;;;;;;2.87;2.50;;;;;;;0.43;78.30;98546.53;5035692;28;20091;-63
2021/01/27 01:08:56;;;;;;;3.90;2.67;;;;;;;0.39;78.06;98545.63;5034518;28;20025;-63
2021/01/27 01:11:22;;;;;;;3.40;3.10;;;;;;;0.44;77.84;98548.25;5035938;28;20036;-63
2021/01/27 01:13:47;;;;;;;4.17;3.27;;;;;;;0.43;77.61;98549.06;5033726;28;20394;-62
2021/01/27 01:16:13;;;;;;;2.80;2.57;;;;;;;0.39;78.08;98555.72;5034378;28;20042;-63
2021/01/27 01:18:38;;;;;;;2.90;2.60;;;;;;;0.34;78.34;98544.69;5035641;28;20408;-63
2021/01/27 01:21:04;;;;;;;5.23;2.67;;;;;;;0.34;78.59;98548.91;5034533;28;20063;-63
2021/01/27 01:23:29;;;;;;;4.17;2.80;;;;;;;0.35;78.21;98550.59;5034920;28;20080;-62
2021/01/27 01:25:54;;;;;;;4.97;3.97;;;;;;;0.36;78.36;98550.63;5035396;28;20091;-63
2021/01/27 01:28:20;;;;;;;5.37;3.13;;;;;;;0.38;78.63;98551.50;5033989;28;20021;-62
2021/01/27 01:30:47;;;;;;;5.50;4.20;;;;;;;0.39;78.67;98534.69;5035142;28;20033;-63
2021/01/27 01:33:23;;;;;;;5.47;4.20;;;;;;;0.49;78.47;98535.72;5033864;28;20104;-62
2021/01/27 01:35:49;;;;;;;5.90;2.83;;;;;;;0.54;78.24;98544.25;5034783;28;20049;-62
2021/01/27 01:38:15;;;;;;;3.60;3.10;;;;;;;0.58;77.82;98539.28;5033436;28;20044;-62
2021/01/27 01:40:46;;;;;;;3.97;3.20;;;;;;;0.52;78.17;98539.16;5035118;28;20100;-62
2021/01/27 01:43:14;;;;;;;7.03;3.77;;;;;;;0.48;78.57;98552.53;5021982;28;20355;-62
2021/01/27 01:45:48;;;;;;;3.83;3.43;;;;;;;0.46;78.18;98544.09;5033648;28;20025;-63
2021/01/27 01:48:19;;;;;;;4.93;3.63;;;;;;;0.49;78.00;98549.19;5033965;28;20064;-62
2021/01/27 01:50:46;;;;;;;4.53;3.40;;;;;;;0.39;78.47;98552.34;5035038;28;20040;-63
2021/01/27 01:53:13;;;;;;;5.47;3.60;;;;;;;0.43;78.50;98559.16;5033805;28;20083;-62
2021/01/27 01:55:39;;;;;;;4.30;2.87;;;;;;;0.41;77.88;98559.13;5016093;28;20014;-62
2021/01/27 01:58:05;;;;;;;5.40;3.40;;;;;;;0.36;77.78;98552.28;5014030;28;20030;-63
2021/01/27 02:00:33;;;;;;;6.47;3.90;;;;;;;0.40;78.13;98549.00;5027972;28;20048;-63
2021/01/27 02:02:58;;;;;;;5.73;3.80;;;;;;;0.34;78.39;98546.38;5034634;28;20026;-63
2021/01/27 02:05:25;;;;;;;10.27;5.50;;;;;;;0.37;78.51;98546.44;5031284;28;20036;-62
2021/01/27 02:07:56;;;;;;;10.03;5.20;;;;;;;0.40;78.05;98538.91;5014898;28;20105;-63
2021/01/27 02:10:23;;;;;;;8.70;5.13;;;;;;;0.36;78.15;98540.53;5012135;28;20079;-63
2021/01/27 02:12:56;;;;;;;8.37;4.57;;;;;;;0.37;77.39;98543.91;5034734;28;20048;-63
2021/01/27 02:15:45;;;;;;;10.10;5.33;;;;;;;0.51;77.79;98539.16;5033331;28;20017;-63
2021/01/27 02:18:39;;;;;;;8.57;4.63;;;;;;;0.54;76.66;98534.16;5032973;28;20035;-62
2021/01/27 02:21:14;;;;;;;6.07;3.73;;;;;;;0.50;77.36;98533.25;5032920;28;20108;-63
2021/01/27 02:23:58;;;;;;;10.60;4.63;;;;;;;0.51;77.32;98536.63;5033094;28;20389;-63
2021/01/27 02:26:52;;;;;;;10.10;4.60;;;;;;;0.52;77.11;98533.25;5032927;28;20022;-63
2021/01/27 02:30:22;;;;;;;9.57;5.90;;;;;;;0.51;77.20;98531.56;5032713;28;20068;-62
2021/01/27 02:33:05;;;;;;;7.10;4.03;;;;;;;0.53;76.91;98535.81;5015052;28;20037;-63
2021/01/27 02:35:51;;;;;;;10.73;5.67;;;;;;;0.43;76.86;98532.25;5011835;28;20111;-62
2021/01/27 02:38:34;;;;;;;6.38;3.72;;;;;;;0.44;76.82;98548.25;5013345;28;20074;-63
2021/01/27 02:41:36;;;;;;;13.97;6.77;;;;;;;0.45;77.38;98535.69;5010848;28;20104;-63
2021/01/27 02:44:09;;;;;;;9.73;4.97;;;;;;;0.40;77.21;98532.22;5031868;28;20029;-63
2021/01/27 02:46:41;;;;;;;10.80;4.90;;;;;;;0.46;76.75;98531.50;5030644;28;20112;-63
2021/01/27 02:49:14;;;;;;;13.30;6.60;;;;;;;0.47;76.49;98537.38;5030376;28;20033;-63
2021/01/27 02:52:03;;;;;;;5.33;4.20;;;;;;;0.42;76.07;98534.78;5030863;28;20490;-63
2021/01/27 02:55:08;;;;;;;8.90;4.77;;;;;;;0.45;75.58;98540.72;5031914;28;20116;-63
2021/01/27 02:57:40;;;;;;;10.40;5.00;;;;;;;0.36;75.58;98548.09;5019775;28;20364;-63
2021/01/27 03:00:19;;;;;;;7.40;5.17;;;;;;;0.38;75.19;98540.59;5011191;28;20690;-63
2021/01/27 03:02:49;;;;;;;10.37;7.97;;;;;;;0.26;75.39;98543.69;5019669;28;20117;-63
2021/01/27 03:05:17;;;;;;;8.70;4.97;;;;;;;0.27;74.50;98542.88;5014340;28;20133;-61
2021/01/27 03:07:48;;;;;;;8.40;5.43;;;;;;;0.24;74.33;98545.34;5024358;28;20446;-62
2021/01/27 03:10:19;;;;;;;9.43;8.47;;;;;;;0.33;72.66;98547.19;5037254;28;20036;-62
2021/01/27 03:12:47;;;;;;;15.10;13.73;;;;;;;0.33;71.91;98537.13;5034191;28;20078;-62
2021/01/27 03:15:13;;;;;;;13.50;12.10;;;;;;;0.42;71.55;98539.81;5037390;28;20029;-62
2021/01/27 03:17:41;;;;;;;9.77;5.50;;;;;;;0.45;71.38;98547.44;5035354;28;20049;-62
2021/01/27 03:20:15;;;;;;;12.03;10.47;;;;;;;0.42;71.95;98552.44;5035934;28;20025;-62
2021/01/27 03:22:46;;;;;;;11.07;9.87;;;;;;;0.23;73.19;98541.13;5036133;28;20350;-63
2021/01/27 03:25:27;;;;;;;17.37;15.70;;;;;;;0.26;73.71;98545.34;5037641;28;20526;-62
2021/01/27 03:28:10;;;;;;;23.43;21.43;;;;;;;0.24;74.16;98547.00;5036038;28;20039;-62
2021/01/27 03:30:36;;;;;;;15.57;12.63;;;;;;;0.15;74.35;98550.19;5037809;28;20331;-62
2021/01/27 03:33:32;;;;;;;28.37;26.17;;;;;;;0.22;74.83;98541.06;5036266;28;20032;-62
2021/01/27 03:36:02;;;;;;;35.75;32.50;;;;;;;0.23;74.56;98542.78;5036844;28;20077;-62
2021/01/27 03:38:35;;;;;;;39.33;35.63;;;;;;;0.23;74.84;98540.25;5036319;28;20078;-63
2021/01/27 03:41:16;;;;;;;24.17;21.93;;;;;;;0.29;74.61;98533.69;5037288;28;20037;-63
2021/01/27 03:44:04;;;;;;;40.00;36.00;;;;;;;0.26;74.56;98542.84;5034519;28;20029;-65
2021/01/27 03:46:33;;;;;;;45.47;38.63;;;;;;;0.28;73.96;98547.09;5036943;28;20458;-63
2021/01/27 03:49:12;;;;;;;39.03;35.60;;;;;;;0.24;74.00;98544.50;5037168;28;20044;-64
2021/01/27 03:51:41;;;;;;;30.57;27.47;;;;;;;0.24;73.70;98540.31;5036983;28;20446;-64
2021/01/27 03:54:12;;;;;;;27.60;25.43;;;;;;;0.27;73.33;98536.97;5037165;28;20420;-64
2021/01/27 03:56:45;;;;;;;39.10;35.43;;;;;;;0.22;73.72;98541.06;5036751;28;20057;-64
2021/01/27 03:59:12;;;;;;;52.87;47.23;;;;;;;0.26;72.14;98536.13;5035505;28;20473;-63
2021/01/27 04:01:46;;;;;;;53.03;47.43;;;;;;;0.16;73.22;98536.78;5036477;28;20124;-63
2021/01/27 04:04:11;;;;;;;58.53;49.40;;;;;;;0.18;72.40;98531.75;5035338;28;20083;-63
2021/01/27 04:06:37;;;;;;;69.50;55.67;;;;;;;0.23;71.03;98535.22;5035544;28;20033;-64
2021/01/27 04:09:02;;;;;;;70.13;55.27;;;;;;;0.22;70.61;98531.00;5035433;28;20461;-64
2021/01/27 04:11:28;;;;;;;68.97;57.43;;;;;;;0.23;70.05;98530.19;5036651;28;20089;-62
2021/01/27 04:13:53;;;;;;;85.27;61.10;;;;;;;0.22;70.36;98538.56;5035172;28;20040;-62
2021/01/27 04:16:20;;;;;;;44.77;40.43;;;;;;;0.22;70.28;98534.38;5036710;28;20456;-64
2021/01/27 04:18:46;;;;;;;65.13;54.77;;;;;;;0.25;69.43;98539.50;5034432;28;20031;-63
2021/01/27 04:21:11;;;;;;;53.60;47.97;;;;;;;0.34;69.25;98528.72;5035067;28;20034;-63
2021/01/27 04:23:37;;;;;;;71.30;57.57;;;;;;;0.26;69.11;98530.22;5035454;28;20026;-63
2021/01/27 04:26:03;;;;;;;64.13;54.20;;;;;;;0.33;68.88;98529.56;5035012;28;20034;-64
2021/01/27 04:28:29;;;;;;;55.77;49.43;;;;;;;0.37;68.49;98523.75;5035863;28;20096;-63
2021/01/27 04:30:54;;;;;;;57.43;49.60;;;;;;;0.32;67.75;98535.41;5035533;28;20504;-64
2021/01/27 04:33:19;;;;;;;51.27;45.80;;;;;;;0.33;68.90;98522.00;5035430;28;20033;-66
2021/01/27 04:35:45;;;;;;;49.80;44.53;;;;;;;0.38;68.21;98533.03;5035609;28;20449;-63
2021/01/27 04:38:10;;;;;;;49.27;44.30;;;;;;;0.29;68.41;98530.31;5035086;28;20033;-64
2021/01/27 04:40:40;;;;;;;63.17;52.27;;;;;;;0.33;69.22;98529.56;5036011;28;20053;-65
2021/01/27 04:43:16;;;;;;;70.53;56.90;;;;;;;0.31;69.11;98529.50;5034721;28;20086;-64
2021/01/27 04:45:47;;;;;;;65.10;52.43;;;;;;;0.28;69.09;98542.06;5036392;28;20041;-63
2021/01/27 04:48:25;;;;;;;55.63;48.10;;;;;;;0.14;70.55;98543.44;5034560;28;20033;-63
2021/01/27 04:50:58;;;;;;;64.83;54.77;;;;;;;0.03;71.25;98554.13;5035174;28;20040;-63
2021/01/27 04:53:52;;;;;;;69.00;54.87;;;;;;;0.01;71.77;98556.59;5033050;28;20052;-63
2021/01/27 04:56:26;;;;;;;72.67;55.03;;;;;;;-0.03;72.22;98548.13;5034895;28;20034;-63
2021/01/27 04:59:00;;;;;;;79.37;59.03;;;;;;;-0.07;72.87;98551.41;5034566;28;20029;-63
2021/01/27 05:01:55;;;;;;;58.53;47.43;;;;;;;-0.11;72.96;98556.34;5035218;28;20117;-63
2021/01/27 05:04:50;;;;;;;61.25;48.58;;;;;;;-0.12;73.14;98554.63;5034758;28;20040;-63
2021/01/27 05:07:23;;;;;;;81.77;57.07;;;;;;;-0.11;73.40;98562.25;5053152;28;20036;-63
2021/01/27 05:09:57;;;;;;;79.77;56.30;;;;;;;-0.03;72.77;98573.31;5052938;28;20037;-64
2021/01/27 05:12:29;;;;;;;96.35;63.60;;;;;;;-0.04;73.06;98573.28;5052681;28;20456;-63
2021/01/27 05:14:54;;;;;;;63.47;50.73;;;;;;;-0.13;72.89;98561.34;5052777;28;20441;-63
2021/01/27 05:17:21;;;;;;;77.43;59.23;;;;;;;-0.17;73.08;98574.69;5052635;28;20123;-63
2021/01/27 05:19:49;;;;;;;89.23;60.53;;;;;;;-0.08;73.04;98559.78;5052118;28;20057;-63
2021/01/27 05:22:15;;;;;;;85.00;58.63;;;;;;;-0.13;73.01;98563.03;5052726;28;20033;-63
2021/01/27 05:24:43;;;;;;;68.10;52.87;;;;;;;-0.08;72.72;98567.34;5046570;28;20381;-63
2021/01/27 05:27:17;;;;;;;34.30;31.13;;;;;;;-0.04;72.92;98563.22;5052262;28;20441;-63
2021/01/27 05:29:49;;;;;;;16.83;7.83;;;;;;;-0.03;73.04;98564.91;5050953;28;20553;-63
2021/01/27 05:32:27;;;;;;;14.13;7.80;;;;;;;-0.01;73.23;98563.28;5051471;28;20280;-63
2021/01/27 05:34:55;;;;;;;9.67;4.97;;;;;;;-0.07;73.45;98564.00;5052793;28;20045;-63
2021/01/27 05:37:27;;;;;;;8.67;5.03;;;;;;;0.05;73.19;98575.16;5051494;28;20033;-63
2021/01/27 05:40:05;;;;;;;12.73;5.60;;;;;;;-0.01;73.40;98568.34;5053073;28;20029;-63
2021/01/27 05:42:36;;;;;;;8.90;5.00;;;;;;;0.05;73.22;98562.56;5050576;28;20433;-63
2021/01/27 05:45:26;;;;;;;12.30;5.97;;;;;;;0.17;72.29;98571.22;5034345;28;20335;-63
2021/01/27 05:47:52;;;;;;;10.17;4.90;;;;;;;0.14;72.15;98562.75;5033401;28;20026;-62
2021/01/27 05:50:34;;;;;;;10.97;5.53;;;;;;;0.20;72.41;98557.84;5033390;28;20370;-63
2021/01/27 05:53:23;;;;;;;8.50;5.13;;;;;;;0.16;72.81;98566.16;5033478;28;20052;-63
2021/01/27 05:56:02;;;;;;;9.33;5.27;;;;;;;0.12;73.38;98566.94;5034419;28;20104;-63
2021/01/27 05:58:30;;;;;;;7.43;4.87;;;;;;;0.15;73.22;98566.97;5033461;28;20032;-63
2021/01/27 06:01:31;;;;;;;7.93;4.47;;;;;;;0.23;72.39;98566.31;5033828;28;20385;-63
2021/01/27 06:04:11;;;;;;;9.23;5.30;;;;;;;0.18;73.13;98567.03;5032437;28;20116;-63
2021/01/27 06:06:46;;;;;;;8.40;4.97;;;;;;;0.20;72.46;98556.19;5027553;28;20087;-63
2021/01/27 06:09:12;;;;;;;11.32;6.13;;;;;;;0.13;72.82;98559.38;5034279;28;20454;-63
2021/01/27 06:11:37;;;;;;;9.07;5.20;;;;;;;0.08;72.52;98555.09;5032508;28;20041;-62
2021/01/27 06:14:07;;;;;;;10.70;6.20;;;;;;;0.11;72.78;98558.50;5028191;28;20073;-63
2021/01/27 06:16:45;;;;;;;10.57;5.60;;;;;;;0.05;72.51;98565.06;5032182;28;20148;-63
2021/01/27 06:19:23;;;;;;;10.73;5.83;;;;;;;0.06;72.05;98556.69;5049530;28;20055;-62
2021/01/27 06:22:28;;;;;;;8.60;4.67;;;;;;;-0.01;72.46;98555.72;5049714;28;20034;-62
2021/01/27 06:25:04;;;;;;;10.57;4.53;;;;;;;-0.02;72.07;98557.41;5053707;28;20234;-62
2021/01/27 06:27:48;;;;;;;10.97;5.43;;;;;;;0.09;71.54;98561.78;5043416;28;20391;-62
2021/01/27 06:30:21;;;;;;;10.87;5.80;;;;;;;-0.01;72.04;98563.28;5034576;28;20026;-62
2021/01/27 06:33:26;;;;;;;13.20;6.17;;;;;;;0.04;71.92;98568.44;5047399;28;20043;-62
2021/01/27 06:36:22;;;;;;;10.65;5.60;;;;;;;0.06;71.41;98571.81;5013884;28;20037;-62
2021/01/27 06:39:10;;;;;;;10.60;5.00;;;;;;;0.02;72.05;98570.91;5032210;28;20469;-63
2021/01/27 06:41:50;;;;;;;14.10;6.17;;;;;;;-0.07;71.86;98568.19;5034301;28;20052;-64
2021/01/27 06:44:40;;;;;;;13.13;6.43;;;;;;;0.02;71.04;98575.09;5020066;28;20033;-62
2021/01/27 06:47:23;;;;;;;13.23;7.20;;;;;;;0.03;71.15;98566.72;5030730;28;20048;-62
2021/01/27 06:50:27;;;;;;;11.43;5.83;;;;;;;0.01;71.06;98576.75;5018694;28;20026;-62
2021/01/27 06:53:07;;;;;;;14.87;6.33;;;;;;;0.00;70.51;98577.59;4995476;28;20447;-62
2021/01/27 06:55:59;;;;;;;10.50;5.70;;;;;;;0.03;71.36;98577.66;5002469;28;20442;-63
2021/01/27 06:58:52;;;;;;;13.10;7.13;;;;;;;0.05;71.11;98570.13;5000862;28;20417;-63
2021/01/27 07:01:43;;;;;;;14.53;6.90;;;;;;;0.09;70.95;98566.84;5001985;28;20022;-62
2021/01/27 07:04:30;;;;;;;10.03;6.20;;;;;;;0.01;70.80;98564.16;5007281;28;20041;-62
2021/01/27 07:07:20;;;;;;;15.23;8.37;;;;;;;0.22;69.95;98559.56;5009183;28;20042;-62
2021/01/27 07:10:27;;;;;;;11.57;5.90;;;;;;;0.25;69.46;98563.84;5002858;28;20037;-62
2021/01/27 07:13:01;;;;;;;11.00;5.83;;;;;;;0.31;69.20;98557.25;4999763;28;20212;-62
2021/01/27 07:15:29;;;;;;;12.93;6.63;;;;;;;0.33;69.08;98552.25;4998154;28;20076;-62
2021/01/27 07:17:54;;;;;;;9.87;5.60;;;;;;;0.33;68.08;98560.66;4998151;28;20154;-62
2021/01/27 07:20:29;;;;;;;9.10;4.67;;;;;;;0.43;67.79;98560.00;5001293;28;20124;-64
2021/01/27 07:23:19;;;;;;;11.02;5.75;;;;;;;0.37;68.33;98554.84;5027744;28;20122;-63
2021/01/27 07:25:44;;;;;;;22.23;9.00;;;;;;;0.31;68.43;98556.38;5023423;28;20041;-62
2021/01/27 07:28:19;;;;;;;12.07;7.23;;;;;;;0.49;68.47;98556.75;5012389;28;20037;-63
2021/01/27 07:31:09;;;;;;;18.73;9.85;;;;;;;0.51;69.07;98550.06;5010772;28;20029;-61
2021/01/27 07:33:45;;;;;;;14.23;8.03;;;;;;;0.47;68.45;98547.47;5012009;28;20034;-61
2021/01/27 07:36:35;;;;;;;13.97;9.00;;;;;;;0.45;68.92;98547.44;5020680;28;20049;-63
2021/01/27 07:39:05;;;;;;;15.73;10.03;;;;;;;0.37;69.70;98554.84;5011193;28;20455;-63
2021/01/27 07:41:44;;;;;;;24.13;13.43;;;;;;;0.43;69.98;98549.06;5010036;28;20025;-61
2021/01/27 07:44:15;;;;;;;13.00;7.20;;;;;;;0.31;70.19;98547.16;5018529;28;20615;-65
2021/01/27 07:46:58;;;;;;;12.43;8.20;;;;;;;0.21;70.26;98554.53;5029400;28;20103;-65
2021/01/27 07:49:40;;;;;;;30.40;15.30;;;;;;;0.16;70.43;98544.34;5029913;28;20087;-65
2021/01/27 07:52:16;;;;;;;15.77;9.70;;;;;;;0.20;70.52;98560.38;5029228;28;20438;-66
2021/01/27 07:54:47;;;;;;;15.07;9.43;;;;;;;0.24;70.64;98549.53;5030002;28;20029;-66
2021/01/27 07:57:32;;;;;;;18.17;11.40;;;;;;;0.41;70.09;98558.28;5033160;28;20029;-65
2021/01/27 08:00:03;;;;;;;13.07;8.25;;;;;;;0.47;70.09;98560.91;5033540;28;20468;-65
2021/01/27 08:02:34;;;;;;;12.33;6.37;;;;;;;0.50;70.28;98555.94;5033105;28;20455;-65
2021/01/27 08:05:08;;;;;;;12.83;7.53;;;;;;;0.70;69.59;98563.88;5033087;28;20021;-65
2021/01/27 08:07:37;;;;;;;15.73;8.50;;;;;;;0.82;70.19;98557.38;5033866;28;20466;-65
2021/01/27 08:10:08;;;;;;;14.60;7.07;;;;;;;0.83;69.48;98553.19;5034777;28;20405;-67
2021/01/27 08:12:40;;;;;;;12.57;6.27;;;;;;;1.00;68.17;98556.00;5035467;28;20029;-65
2021/01/27 08:15:14;;;;;;;8.57;5.20;;;;;;;1.06;68.77;98556.94;5037173;28;20393;-65
2021/01/27 08:17:51;;;;;;;10.13;7.87;;;;;;;1.15;68.37;98557.09;5035303;28;20104;-66
2021/01/27 08:20:41;;;;;;;9.97;7.53;;;;;;;1.05;68.35;98565.38;5036366;28;20437;-65
2021/01/27 08:23:29;;;;;;;15.13;9.07;;;;;;;1.01;68.47;98555.19;5034787;28;20030;-65
2021/01/27 08:26:03;;;;;;;9.60;6.93;;;;;;;1.14;68.03;98573.09;5035546;28;20171;-65
2021/01/27 08:28:38;;;;;;;7.97;6.43;;;;;;;1.09;66.88;98573.84;5035512;28;20354;-65
2021/01/27 08:31:09;;;;;;;10.30;6.78;;;;;;;1.04;67.32;98567.84;5036659;28;20094;-65
2021/01/27 08:33:44;;;;;;;13.17;7.27;;;;;;;1.08;67.04;98577.19;5035257;28;20052;-63
2021/01/27 08:36:23;;;;;;;7.30;5.90;;;;;;;1.18;67.07;98574.84;5017243;28;20065;-64
2021/01/27 08:38:58;;;;;;;13.77;9.40;;;;;;;1.41;66.29;98585.31;5035876;28;20405;-64
2021/01/27 08:41:54;;;;;;;13.65;7.70;;;;;;;1.61;65.87;98586.47;5016599;28;20084;-63
2021/01/27 08:44:19;;;;;;;12.97;6.33;;;;;;;1.92;65.79;98579.34;5025181;28;20026;-63
2021/01/27 08:46:54;;;;;;;13.20;9.07;;;;;;;1.87;66.24;98591.09;5024379;28;20108;-64
2021/01/27 08:49:37;;;;;;;18.15;12.07;;;;;;;1.94;65.00;98605.53;5030756;28;20443;-63
2021/01/27 08:52:09;;;;;;;12.83;6.27;;;;;;;1.97;65.37;98603.03;5025818;28;20027;-64
2021/01/27 08:54:35;;;;;;;5.90;4.03;;;;;;;1.81;65.84;98604.50;5025933;28;20029;-63
2021/01/27 08:57:20;;;;;;;9.23;5.70;;;;;;;1.70;65.75;98606.84;5018350;28;20324;-63
2021/01/27 09:00:06;;;;;;;12.50;7.53;;;;;;;1.84;64.34;98605.38;5013580;28;20030;-63
2021/01/27 09:02:37;;;;;;;10.02;8.15;;;;;;;1.87;64.64;98604.56;5016602;28;20021;-63
2021/01/27 09:05:11;;;;;;;13.00;9.77;;;;;;;1.95;64.85;98614.81;5022348;28;20099;-63
2021/01/27 09:08:06;;;;;;;8.33;6.53;;;;;;;1.92;64.98;98609.69;5024458;28;20022;-62
2021/01/27 09:10:42;;;;;;;12.97;9.33;;;;;;;1.97;64.63;98614.00;5024504;28;20383;-62
2021/01/27 09:13:27;;;;;;;8.47;7.73;;;;;;;1.95;64.38;98623.25;5026471;28;20025;-62
2021/01/27 09:16:00;;;;;;;12.77;8.40;;;;;;;1.90;64.41;98624.00;5024393;28;20458;-62
2021/01/27 09:18:26;;;;;;;8.10;7.30;;;;;;;1.97;64.47;98618.19;5023410;28;20108;-62
2021/01/27 09:20:52;;;;;;;13.60;8.43;;;;;;;1.98;65.14;98627.47;5024102;28;20018;-62
2021/01/27 09:23:20;;;;;;;7.53;6.60;;;;;;;1.88;63.56;98626.50;5031563;28;20064;-62
2021/01/27 09:25:51;;;;;;;14.10;12.90;;;;;;;1.88;64.00;98618.91;5033324;28;20021;-62
2021/01/27 09:28:23;;;;;;;8.97;8.07;;;;;;;1.87;64.19;98609.63;5034929;28;20036;-63
2021/01/27 09:30:50;;;;;;;12.00;9.67;;;;;;;1.86;63.37;98617.19;5031644;28;20021;-62
2021/01/27 09:33:32;;;;;;;10.40;8.57;;;;;;;1.90;63.32;98612.22;5033958;28;20116;-62
2021/01/27 09:36:28;;;;;;;13.10;10.20;;;;;;;1.84;63.66;98612.97;5033099;28;20033;-62
2021/01/27 09:38:56;;;;;;;12.67;11.30;;;;;;;1.93;62.64;98626.56;5029926;28;20182;-62
2021/01/27 09:41:33;;;;;;;7.43;4.67;;;;;;;1.98;62.62;98620.75;5032706;28;20399;-62
2021/01/27 09:44:01;;;;;;;10.63;6.20;;;;;;;2.14;62.30;98619.28;5031870;28;20064;-63
2021/01/27 09:46:37;;;;;;;9.43;5.43;;;;;;;2.31;62.22;98605.19;5033776;28;20022;-62
2021/01/27 09:49:07;;;;;;;8.27;4.83;;;;;;;2.35;61.45;98608.59;5033130;28;20401;-62
2021/01/27 09:51:33;;;;;;;7.50;4.40;;;;;;;2.30;60.82;98606.00;5025007;28;20025;-63
2021/01/27 09:54:01;;;;;;;9.80;5.23;;;;;;;2.50;60.69;98602.09;5016983;28;20104;-63
2021/01/27 09:56:28;;;;;;;14.00;7.70;;;;;;;2.48;61.06;98605.41;5024126;28;20041;-61
2021/01/27 09:58:55;;;;;;;3.77;3.27;;;;;;;2.53;60.04;98604.63;5024085;28;20518;-60
2021/01/27 10:01:23;;;;;;;4.73;3.40;;;;;;;2.47;59.75;98591.03;5023207;28;20022;-61
2021/01/27 10:03:51;;;;;;;5.70;3.80;;;;;;;2.61;59.85;98612.31;5023904;28;20338;-61
2021/01/27 10:06:37;;;;;;;5.60;4.43;;;;;;;2.70;60.13;98604.84;5023313;28;20084;-62
2021/01/27 10:09:12;;;;;;;7.87;3.87;;;;;;;2.60;59.87;98603.03;5022813;28;20461;-60
2021/01/27 10:11:38;;;;;;;5.50;3.20;;;;;;;2.64;59.08;98598.00;5014776;28;20030;-61
2021/01/27 10:14:09;;;;;;;2.97;2.67;;;;;;;2.59;59.14;98597.09;5018873;28;20028;-61
2021/01/27 10:16:52;;;;;;;3.40;3.10;;;;;;;2.62;59.15;98602.22;5017950;28;20033;-60
2021/01/27 10:19:24;;;;;;;5.83;3.73;;;;;;;2.48;58.77;98607.94;5024630;28;20098;-61
2021/01/27 10:21:51;;;;;;;4.73;3.43;;;;;;;2.28;59.12;98621.19;5023709;28;20049;-62
2021/01/27 10:24:47;;;;;;;3.63;3.23;;;;;;;2.48;58.91;98592.75;5020758;28;20044;-62
2021/01/27 10:27:20;;;;;;;5.60;3.43;;;;;;;2.71;59.43;98583.75;5019025;28;20030;-61
2021/01/27 10:29:46;;;;;;;6.43;3.27;;;;;;;2.93;58.41;98585.66;5018382;28;20022;-63
2021/01/27 10:32:24;;;;;;;5.47;3.73;;;;;;;2.94;58.48;98584.84;5019176;28;20032;-62
2021/01/27 10:34:51;;;;;;;5.07;3.97;;;;;;;2.78;59.77;98588.06;5024435;28;20461;-61
2021/01/27 10:37:37;;;;;;;5.73;3.53;;;;;;;2.94;57.91;98592.44;5022488;28;20080;-63
2021/01/27 10:40:11;;;;;;;4.40;3.47;;;;;;;3.14;57.81;98585.06;5025356;28;20493;-64
2021/01/27 10:42:40;;;;;;;3.03;2.47;;;;;;;3.10;55.73;98589.22;5021328;28;20104;-63
2021/01/27 10:45:25;;;;;;;5.83;3.30;;;;;;;3.30;56.20;98583.50;5022820;28;20044;-63
2021/01/27 10:47:59;;;;;;;6.68;3.13;;;;;;;3.37;56.75;98577.66;5026754;28;20033;-62
2021/01/27 10:50:29;;;;;;;3.73;2.67;;;;;;;3.32;57.08;98574.22;5028018;28;20454;-61
2021/01/27 10:52:55;;;;;;;4.03;3.63;;;;;;;3.45;58.00;98569.28;5021797;28;20029;-63
2021/01/27 10:55:22;;;;;;;3.10;2.80;;;;;;;3.37;56.40;98570.91;5024666;28;20096;-62
2021/01/27 10:57:47;;;;;;;2.87;2.33;;;;;;;3.28;55.20;98570.81;5014425;28;20462;-65
2021/01/27 11:00:16;;;;;;;4.27;3.17;;;;;;;3.32;56.70;98571.69;5019187;28;20114;-60
2021/01/27 11:02:42;;;;;;;3.97;2.73;;;;;;;3.29;56.21;98575.06;5014963;28;20023;-62
2021/01/27 11:05:08;;;;;;;3.37;2.70;;;;;;;3.30;55.55;98556.50;5023709;28;20145;-62
2021/01/27 11:07:33;;;;;;;3.90;3.40;;;;;;;3.25;56.25;98544.63;5024810;28;20099;-64
2021/01/27 11:09:59;;;;;;;3.67;2.73;;;;;;;3.03;56.14;98556.22;5024149;28;20134;-64
2021/01/27 11:12:24;;;;;;;2.57;2.37;;;;;;;3.19;55.71;98538.66;5023616;28;20030;-64
2021/01/27 11:14:49;;;;;;;3.37;2.63;;;;;;;3.22;56.57;98538.69;5025865;28;20054;-65
2021/01/27 11:17:15;;;;;;;5.03;3.27;;;;;;;3.15;57.25;98520.88;5029322;28;20034;-64
2021/01/27 11:19:41;;;;;;;7.43;2.90;;;;;;;3.19;56.52;98526.00;5030963;28;20351;-64
2021/01/27 11:22:06;;;;;;;5.83;3.57;;;;;;;3.14;57.26;98525.09;5029737;28;20039;-64
2021/01/27 11:24:32;;;;;;;4.20;2.63;;;;;;;3.14;56.99;98519.22;5021983;28;20091;-65
2021/01/27 11:26:57;;;;;;;2.70;2.20;;;;;;;3.13;56.38;98535.25;5025110;28;20042;-64
2021/01/27 11:29:23;;;;;;;6.07;3.57;;;;;;;3.14;57.36;98516.69;5025486;28;20029;-63
2021/01/27 11:31:48;;;;;;;3.50;3.17;;;;;;;2.93;57.39;98519.84;5033324;28;20358;-63
2021/01/27 11:34:14;;;;;;;3.07;2.77;;;;;;;3.01;57.91;98518.22;5026875;28;20683;-64
2021/01/27 11:36:39;;;;;;;5.00;2.63;;;;;;;3.01;56.51;98520.75;5029599;28;20072;-64
2021/01/27 11:39:09;;;;;;;4.97;2.97;;;;;;;3.13;57.66;98513.28;5033898;28;20036;-64
2021/01/27 11:41:34;;;;;;;2.77;2.13;;;;;;;3.10;56.05;98509.88;5034546;28;20029;-63
2021/01/27 11:43:59;;;;;;;3.40;2.73;;;;;;;3.13;56.86;98517.50;5033910;28;20064;-64
2021/01/27 11:46:25;;;;;;;3.27;2.57;;;;;;;3.04;57.91;98504.75;5034951;28;20029;-63
2021/01/27 11:48:50;;;;;;;2.73;2.40;;;;;;;3.00;58.09;98521.63;5028813;28;20056;-63
2021/01/27 11:51:16;;;;;;;3.40;3.10;;;;;;;3.01;58.03;98507.28;5035480;28;20033;-64
2021/01/27 11:53:42;;;;;;;3.70;2.53;;;;;;;3.06;56.89;98505.59;5035278;28;20105;-65
2021/01/27 11:56:08;;;;;;;3.20;2.27;;;;;;;3.05;58.56;98506.47;5036729;28;20021;-64
2021/01/27 11:58:35;;;;;;;3.53;2.60;;;;;;;3.05;58.13;98503.94;5033331;28;20033;-64
2021/01/27 12:01:01;;;;;;;3.97;3.10;;;;;;;2.97;58.10;98503.84;5031156;28;20074;-64
2021/01/27 12:03:27;;;;;;;3.50;1.90;;;;;;;3.02;56.46;98508.94;5028739;28;20026;-64